sensor_id;sensor_type;location;lat;lon;timestamp;P1;durP1;ratioP1;P2;durP2;ratioP2
35126;SDS011;21300;52.006;5.798;2022-11-06T00:01:08;11.45;;;5.60;;
35126;SDS011;21300;52.006;5.798;2022-11-06T00:03:35;12.60;;;6.00;;
35126;SDS011;21300;52.006;5.798;2022-11-06T00:06:19;8.43;;;5.50;;
35126;SDS011;21300;52.006;5.798;2022-11-06T00:09:05;9.10;;;5.85;;
35126;SDS011;21300;52.006;5.798;2022-11-06T00:11:32;8.20;;;4.90;;
35126;SDS011;21300;52.006;5.798;2022-11-06T00:13:58;12.13;;;5.53;;
35126;SDS011;21300;52.006;5.798;2022-11-06T00:16:25;11.43;;;5.70;;
35126;SDS011;21300;52.006;5.798;2022-11-06T00:18:50;12.73;;;5.65;;
35126;SDS011;21300;52.006;5.798;2022-11-06T00:21:18;13.13;;;5.20;;
35126;SDS011;21300;52.006;5.798;2022-11-06T00:24:03;10.90;;;5.85;;
35126;SDS011;21300;52.006;5.798;2022-11-06T00:26:31;10.20;;;5.60;;
35126;SDS011;21300;52.006;5.798;2022-11-06T00:28:58;14.80;;;5.72;;
35126;SDS011;21300;52.006;5.798;2022-11-06T00:31:25;12.95;;;4.97;;
35126;SDS011;21300;52.006;5.798;2022-11-06T00:33:56;15.95;;;5.40;;
35126;SDS011;21300;52.006;5.798;2022-11-06T00:36:23;9.00;;;4.68;;
35126;SDS011;21300;52.006;5.798;2022-11-06T00:38:50;9.30;;;4.50;;
35126;SDS011;21300;52.006;5.798;2022-11-06T00:41:17;9.18;;;4.70;;
35126;SDS011;21300;52.006;5.798;2022-11-06T00:43:46;12.18;;;4.88;;
35126;SDS011;21300;52.006;5.798;2022-11-06T00:46:16;8.52;;;4.43;;
35126;SDS011;21300;52.006;5.798;2022-11-06T00:48:43;11.65;;;4.20;;
35126;SDS011;21300;52.006;5.798;2022-11-06T00:51:13;7.22;;;4.32;;
35126;SDS011;21300;52.006;5.798;2022-11-06T00:53:40;12.23;;;5.22;;
35126;SDS011;21300;52.006;5.798;2022-11-06T00:56:11;10.77;;;4.85;;
35126;SDS011;21300;52.006;5.798;2022-11-06T00:58:38;10.15;;;4.82;;
35126;SDS011;21300;52.006;5.798;2022-11-06T01:01:08;13.65;;;4.03;;
35126;SDS011;21300;52.006;5.798;2022-11-06T01:03:39;8.65;;;4.97;;
35126;SDS011;21300;52.006;5.798;2022-11-06T01:06:07;8.15;;;4.40;;
35126;SDS011;21300;52.006;5.798;2022-11-06T01:08:37;11.25;;;4.53;;
35126;SDS011;21300;52.006;5.798;2022-11-06T01:11:07;10.93;;;4.82;;
35126;SDS011;21300;52.006;5.798;2022-11-06T01:13:37;8.65;;;4.20;;
35126;SDS011;21300;52.006;5.798;2022-11-06T01:16:04;9.32;;;4.50;;
35126;SDS011;21300;52.006;5.798;2022-11-06T01:18:32;11.73;;;4.25;;
35126;SDS011;21300;52.006;5.798;2022-11-06T01:20:58;10.95;;;4.50;;
35126;SDS011;21300;52.006;5.798;2022-11-06T01:23:27;10.98;;;4.10;;
35126;SDS011;21300;52.006;5.798;2022-11-06T01:25:59;8.85;;;4.03;;
35126;SDS011;21300;52.006;5.798;2022-11-06T01:28:26;8.57;;;4.07;;
35126;SDS011;21300;52.006;5.798;2022-11-06T01:30:52;11.40;;;4.28;;
35126;SDS011;21300;52.006;5.798;2022-11-06T01:33:18;11.88;;;3.80;;
35126;SDS011;21300;52.006;5.798;2022-11-06T01:35:45;6.43;;;3.55;;
35126;SDS011;21300;52.006;5.798;2022-11-06T01:38:11;8.50;;;4.28;;
35126;SDS011;21300;52.006;5.798;2022-11-06T01:40:44;10.90;;;3.92;;
35126;SDS011;21300;52.006;5.798;2022-11-06T01:43:15;5.75;;;3.53;;
35126;SDS011;21300;52.006;5.798;2022-11-06T01:45:43;8.95;;;3.85;;
35126;SDS011;21300;52.006;5.798;2022-11-06T01:48:11;14.73;;;4.25;;
35126;SDS011;21300;52.006;5.798;2022-11-06T01:50:38;7.72;;;3.53;;
35126;SDS011;21300;52.006;5.798;2022-11-06T01:53:07;8.25;;;3.30;;
35126;SDS011;21300;52.006;5.798;2022-11-06T01:55:37;7.78;;;3.22;;
35126;SDS011;21300;52.006;5.798;2022-11-06T01:58:06;6.88;;;3.88;;
35126;SDS011;21300;52.006;5.798;2022-11-06T02:00:34;8.15;;;3.58;;
35126;SDS011;21300;52.006;5.798;2022-11-06T02:03:00;9.77;;;3.55;;
35126;SDS011;21300;52.006;5.798;2022-11-06T02:05:27;7.97;;;3.58;;
35126;SDS011;21300;52.006;5.798;2022-11-06T02:07:52;9.13;;;3.90;;
35126;SDS011;21300;52.006;5.798;2022-11-06T02:10:20;9.45;;;3.67;;
35126;SDS011;21300;52.006;5.798;2022-11-06T02:13:02;7.88;;;3.20;;
35126;SDS011;21300;52.006;5.798;2022-11-06T02:23:45;11.70;;;3.17;;
35126;SDS011;21300;52.006;5.798;2022-11-06T02:29:32;12.63;;;3.92;;
35126;SDS011;21300;52.006;5.798;2022-11-06T02:32:11;11.05;;;3.10;;
35126;SDS011;21300;52.006;5.798;2022-11-06T02:34:45;9.88;;;2.92;;
35126;SDS011;21300;52.006;5.798;2022-11-06T02:37:15;13.30;;;3.20;;
35126;SDS011;21300;52.006;5.798;2022-11-06T02:39:44;7.22;;;3.20;;
35126;SDS011;21300;52.006;5.798;2022-11-06T02:42:13;13.35;;;3.40;;
35126;SDS011;21300;52.006;5.798;2022-11-06T02:45:01;8.68;;;2.65;;
35126;SDS011;21300;52.006;5.798;2022-11-06T02:47:27;8.50;;;2.50;;
35126;SDS011;21300;52.006;5.798;2022-11-06T02:50:30;8.15;;;2.80;;
35126;SDS011;21300;52.006;5.798;2022-11-06T02:52:59;6.78;;;2.50;;
35126;SDS011;21300;52.006;5.798;2022-11-06T02:55:29;9.00;;;3.13;;
35126;SDS011;21300;52.006;5.798;2022-11-06T02:58:06;6.88;;;2.72;;
35126;SDS011;21300;52.006;5.798;2022-11-06T03:00:36;6.45;;;3.03;;
35126;SDS011;21300;52.006;5.798;2022-11-06T03:03:09;15.43;;;3.42;;
35126;SDS011;21300;52.006;5.798;2022-11-06T03:11:15;9.80;;;3.05;;
35126;SDS011;21300;52.006;5.798;2022-11-06T03:13:47;6.10;;;2.50;;
35126;SDS011;21300;52.006;5.798;2022-11-06T03:16:25;10.70;;;2.88;;
35126;SDS011;21300;52.006;5.798;2022-11-06T03:21:55;8.80;;;2.60;;
35126;SDS011;21300;52.006;5.798;2022-11-06T03:24:40;6.80;;;2.60;;
35126;SDS011;21300;52.006;5.798;2022-11-06T03:27:14;9.18;;;2.55;;
35126;SDS011;21300;52.006;5.798;2022-11-06T03:29:51;9.43;;;2.60;;
35126;SDS011;21300;52.006;5.798;2022-11-06T03:32:26;5.78;;;2.55;;
35126;SDS011;21300;52.006;5.798;2022-11-06T03:35:00;8.07;;;2.67;;
35126;SDS011;21300;52.006;5.798;2022-11-06T03:37:49;8.93;;;2.90;;
35126;SDS011;21300;52.006;5.798;2022-11-06T03:40:19;8.00;;;2.50;;
35126;SDS011;21300;52.006;5.798;2022-11-06T03:42:48;8.40;;;2.88;;
35126;SDS011;21300;52.006;5.798;2022-11-06T03:45:19;11.55;;;3.63;;
35126;SDS011;21300;52.006;5.798;2022-11-06T03:47:47;6.07;;;2.40;;
35126;SDS011;21300;52.006;5.798;2022-11-06T03:50:26;8.45;;;2.58;;
35126;SDS011;21300;52.006;5.798;2022-11-06T03:53:07;10.95;;;3.50;;
35126;SDS011;21300;52.006;5.798;2022-11-06T03:55:44;10.10;;;2.50;;
35126;SDS011;21300;52.006;5.798;2022-11-06T03:58:22;9.30;;;2.75;;
35126;SDS011;21300;52.006;5.798;2022-11-06T04:00:52;8.98;;;2.90;;
35126;SDS011;21300;52.006;5.798;2022-11-06T04:03:34;6.45;;;2.30;;
35126;SDS011;21300;52.006;5.798;2022-11-06T04:08:36;8.25;;;2.45;;
35126;SDS011;21300;52.006;5.798;2022-11-06T04:11:21;10.57;;;2.95;;
35126;SDS011;21300;52.006;5.798;2022-11-06T04:14:08;6.68;;;2.25;;
35126;SDS011;21300;52.006;5.798;2022-11-06T04:16:39;10.02;;;2.55;;
35126;SDS011;21300;52.006;5.798;2022-11-06T04:19:13;7.95;;;2.65;;
35126;SDS011;21300;52.006;5.798;2022-11-06T04:24:15;6.88;;;2.45;;
35126;SDS011;21300;52.006;5.798;2022-11-06T04:30:09;9.27;;;2.45;;
35126;SDS011;21300;52.006;5.798;2022-11-06T04:32:46;8.73;;;2.60;;
35126;SDS011;21300;52.006;5.798;2022-11-06T04:38:09;8.63;;;2.13;;
35126;SDS011;21300;52.006;5.798;2022-11-06T04:46:05;7.40;;;2.35;;
35126;SDS011;21300;52.006;5.798;2022-11-06T04:48:35;10.35;;;2.15;;
35126;SDS011;21300;52.006;5.798;2022-11-06T04:51:03;6.32;;;2.25;;
35126;SDS011;21300;52.006;5.798;2022-11-06T04:53:33;7.10;;;2.13;;
35126;SDS011;21300;52.006;5.798;2022-11-06T04:56:05;7.82;;;2.17;;
35126;SDS011;21300;52.006;5.798;2022-11-06T04:58:34;10.82;;;2.53;;
35126;SDS011;21300;52.006;5.798;2022-11-06T05:00:59;5.32;;;1.88;;
35126;SDS011;21300;52.006;5.798;2022-11-06T05:03:25;8.15;;;2.20;;
35126;SDS011;21300;52.006;5.798;2022-11-06T05:05:50;8.57;;;2.20;;
35126;SDS011;21300;52.006;5.798;2022-11-06T05:08:16;12.90;;;2.83;;
35126;SDS011;21300;52.006;5.798;2022-11-06T05:13:28;5.72;;;2.00;;
35126;SDS011;21300;52.006;5.798;2022-11-06T05:15:54;8.02;;;2.15;;
35126;SDS011;21300;52.006;5.798;2022-11-06T05:18:21;8.35;;;2.38;;
35126;SDS011;21300;52.006;5.798;2022-11-06T05:20:47;5.90;;;2.20;;
35126;SDS011;21300;52.006;5.798;2022-11-06T05:23:13;9.35;;;2.42;;
35126;SDS011;21300;52.006;5.798;2022-11-06T05:25:41;8.50;;;2.25;;
35126;SDS011;21300;52.006;5.798;2022-11-06T05:28:07;6.70;;;2.10;;
35126;SDS011;21300;52.006;5.798;2022-11-06T05:30:34;6.13;;;2.15;;
35126;SDS011;21300;52.006;5.798;2022-11-06T05:33:00;8.27;;;2.13;;
35126;SDS011;21300;52.006;5.798;2022-11-06T05:35:26;7.68;;;2.40;;
35126;SDS011;21300;52.006;5.798;2022-11-06T05:37:58;8.15;;;2.97;;
35126;SDS011;21300;52.006;5.798;2022-11-06T05:40:25;10.13;;;2.17;;
35126;SDS011;21300;52.006;5.798;2022-11-06T05:42:51;6.32;;;1.90;;
35126;SDS011;21300;52.006;5.798;2022-11-06T05:45:35;6.78;;;1.90;;
35126;SDS011;21300;52.006;5.798;2022-11-06T05:48:00;11.27;;;2.58;;
35126;SDS011;21300;52.006;5.798;2022-11-06T05:50:26;7.07;;;2.20;;
35126;SDS011;21300;52.006;5.798;2022-11-06T05:52:52;8.20;;;2.28;;
35126;SDS011;21300;52.006;5.798;2022-11-06T05:55:17;4.22;;;2.00;;
35126;SDS011;21300;52.006;5.798;2022-11-06T05:57:43;6.13;;;1.95;;
35126;SDS011;21300;52.006;5.798;2022-11-06T06:00:09;9.10;;;2.05;;
35126;SDS011;21300;52.006;5.798;2022-11-06T06:02:36;7.40;;;2.33;;
35126;SDS011;21300;52.006;5.798;2022-11-06T06:05:02;6.57;;;1.90;;
35126;SDS011;21300;52.006;5.798;2022-11-06T06:07:29;5.18;;;2.13;;
35126;SDS011;21300;52.006;5.798;2022-11-06T06:09:55;7.00;;;2.22;;
35126;SDS011;21300;52.006;5.798;2022-11-06T06:12:20;8.85;;;2.20;;
35126;SDS011;21300;52.006;5.798;2022-11-06T06:14:48;10.55;;;2.40;;
35126;SDS011;21300;52.006;5.798;2022-11-06T06:17:14;11.32;;;2.13;;
35126;SDS011;21300;52.006;5.798;2022-11-06T06:19:40;7.13;;;2.17;;
35126;SDS011;21300;52.006;5.798;2022-11-06T06:22:05;8.57;;;2.58;;
35126;SDS011;21300;52.006;5.798;2022-11-06T06:24:31;7.93;;;2.50;;
35126;SDS011;21300;52.006;5.798;2022-11-06T06:26:56;11.73;;;3.20;;
35126;SDS011;21300;52.006;5.798;2022-11-06T06:29:22;7.30;;;2.50;;
35126;SDS011;21300;52.006;5.798;2022-11-06T06:31:47;6.45;;;2.35;;
35126;SDS011;21300;52.006;5.798;2022-11-06T06:34:14;9.80;;;2.80;;
35126;SDS011;21300;52.006;5.798;2022-11-06T06:36:39;11.30;;;3.20;;
35126;SDS011;21300;52.006;5.798;2022-11-06T06:39:05;10.65;;;3.00;;
35126;SDS011;21300;52.006;5.798;2022-11-06T06:41:31;7.85;;;2.42;;
35126;SDS011;21300;52.006;5.798;2022-11-06T06:43:57;6.72;;;2.55;;
35126;SDS011;21300;52.006;5.798;2022-11-06T06:46:23;9.98;;;2.50;;
35126;SDS011;21300;52.006;5.798;2022-11-06T06:48:48;6.75;;;2.40;;
35126;SDS011;21300;52.006;5.798;2022-11-06T06:51:14;9.55;;;2.72;;
35126;SDS011;21300;52.006;5.798;2022-11-06T06:53:39;3.17;;;1.45;;
35126;SDS011;21300;52.006;5.798;2022-11-06T06:56:05;7.75;;;2.53;;
35126;SDS011;21300;52.006;5.798;2022-11-06T06:58:31;5.65;;;2.25;;
35126;SDS011;21300;52.006;5.798;2022-11-06T07:01:00;7.07;;;2.28;;
35126;SDS011;21300;52.006;5.798;2022-11-06T07:03:26;7.78;;;2.10;;
35126;SDS011;21300;52.006;5.798;2022-11-06T07:05:52;6.07;;;2.30;;
35126;SDS011;21300;52.006;5.798;2022-11-06T07:08:18;8.20;;;3.28;;
35126;SDS011;21300;52.006;5.798;2022-11-06T07:10:43;6.75;;;2.20;;
35126;SDS011;21300;52.006;5.798;2022-11-06T07:13:09;6.68;;;2.45;;
35126;SDS011;21300;52.006;5.798;2022-11-06T07:15:34;7.72;;;2.60;;
35126;SDS011;21300;52.006;5.798;2022-11-06T07:18:04;6.45;;;2.03;;
35126;SDS011;21300;52.006;5.798;2022-11-06T07:20:30;7.20;;;2.30;;
35126;SDS011;21300;52.006;5.798;2022-11-06T07:22:56;4.22;;;2.20;;
35126;SDS011;21300;52.006;5.798;2022-11-06T07:25:23;8.88;;;2.28;;
35126;SDS011;21300;52.006;5.798;2022-11-06T07:27:49;9.23;;;2.78;;
35126;SDS011;21300;52.006;5.798;2022-11-06T07:30:15;13.07;;;2.95;;
35126;SDS011;21300;52.006;5.798;2022-11-06T07:32:40;6.28;;;1.95;;
35126;SDS011;21300;52.006;5.798;2022-11-06T07:35:06;6.22;;;2.10;;
35126;SDS011;21300;52.006;5.798;2022-11-06T07:37:32;6.47;;;2.45;;
35126;SDS011;21300;52.006;5.798;2022-11-06T07:39:59;5.30;;;2.55;;
35126;SDS011;21300;52.006;5.798;2022-11-06T07:42:24;6.50;;;2.45;;
35126;SDS011;21300;52.006;5.798;2022-11-06T07:44:51;7.68;;;2.40;;
35126;SDS011;21300;52.006;5.798;2022-11-06T07:47:35;10.85;;;2.55;;
35126;SDS011;21300;52.006;5.798;2022-11-06T07:50:01;10.93;;;2.83;;
35126;SDS011;21300;52.006;5.798;2022-11-06T07:52:27;5.47;;;2.35;;
35126;SDS011;21300;52.006;5.798;2022-11-06T07:54:52;10.07;;;2.58;;
35126;SDS011;21300;52.006;5.798;2022-11-06T07:57:18;7.53;;;2.40;;
35126;SDS011;21300;52.006;5.798;2022-11-06T07:59:43;6.03;;;2.25;;
35126;SDS011;21300;52.006;5.798;2022-11-06T08:02:10;11.68;;;2.42;;
35126;SDS011;21300;52.006;5.798;2022-11-06T08:04:39;8.32;;;2.33;;
35126;SDS011;21300;52.006;5.798;2022-11-06T08:07:04;4.75;;;2.30;;
35126;SDS011;21300;52.006;5.798;2022-11-06T08:09:30;8.85;;;2.20;;
35126;SDS011;21300;52.006;5.798;2022-11-06T08:11:56;5.28;;;2.20;;
35126;SDS011;21300;52.006;5.798;2022-11-06T08:14:22;4.93;;;1.95;;
35126;SDS011;21300;52.006;5.798;2022-11-06T08:16:47;3.97;;;1.80;;
35126;SDS011;21300;52.006;5.798;2022-11-06T08:19:13;9.02;;;1.80;;
35126;SDS011;21300;52.006;5.798;2022-11-06T08:21:39;6.50;;;2.67;;
35126;SDS011;21300;52.006;5.798;2022-11-06T08:24:04;7.30;;;2.00;;
35126;SDS011;21300;52.006;5.798;2022-11-06T08:26:30;7.15;;;2.25;;
35126;SDS011;21300;52.006;5.798;2022-11-06T08:28:56;9.65;;;2.95;;
35126;SDS011;21300;52.006;5.798;2022-11-06T08:31:22;6.70;;;1.95;;
35126;SDS011;21300;52.006;5.798;2022-11-06T08:33:48;6.70;;;1.95;;
35126;SDS011;21300;52.006;5.798;2022-11-06T08:36:14;7.13;;;2.10;;
35126;SDS011;21300;52.006;5.798;2022-11-06T08:38:39;5.50;;;1.95;;
35126;SDS011;21300;52.006;5.798;2022-11-06T08:41:11;13.32;;;2.15;;
35126;SDS011;21300;52.006;5.798;2022-11-06T08:43:37;6.32;;;2.35;;
35126;SDS011;21300;52.006;5.798;2022-11-06T08:46:03;6.05;;;1.85;;
35126;SDS011;21300;52.006;5.798;2022-11-06T08:48:30;5.63;;;1.92;;
35126;SDS011;21300;52.006;5.798;2022-11-06T08:50:56;9.60;;;2.28;;
35126;SDS011;21300;52.006;5.798;2022-11-06T08:53:22;5.43;;;2.28;;
35126;SDS011;21300;52.006;5.798;2022-11-06T08:55:47;9.25;;;2.10;;
35126;SDS011;21300;52.006;5.798;2022-11-06T08:58:13;5.15;;;1.77;;
35126;SDS011;21300;52.006;5.798;2022-11-06T09:00:39;7.95;;;2.08;;
35126;SDS011;21300;52.006;5.798;2022-11-06T09:03:06;6.40;;;2.45;;
35126;SDS011;21300;52.006;5.798;2022-11-06T09:05:34;7.15;;;2.15;;
35126;SDS011;21300;52.006;5.798;2022-11-06T09:08:00;11.10;;;2.40;;
35126;SDS011;21300;52.006;5.798;2022-11-06T09:10:26;9.85;;;2.08;;
35126;SDS011;21300;52.006;5.798;2022-11-06T09:12:52;7.15;;;1.83;;
35126;SDS011;21300;52.006;5.798;2022-11-06T09:15:19;2.70;;;1.42;;
35126;SDS011;21300;52.006;5.798;2022-11-06T09:17:45;4.05;;;1.80;;
35126;SDS011;21300;52.006;5.798;2022-11-06T09:20:13;8.85;;;2.22;;
35126;SDS011;21300;52.006;5.798;2022-11-06T09:22:40;5.68;;;1.80;;
35126;SDS011;21300;52.006;5.798;2022-11-06T09:25:25;6.93;;;2.28;;
35126;SDS011;21300;52.006;5.798;2022-11-06T09:27:51;7.15;;;1.92;;
35126;SDS011;21300;52.006;5.798;2022-11-06T09:30:18;6.30;;;1.92;;
35126;SDS011;21300;52.006;5.798;2022-11-06T09:33:04;6.35;;;2.00;;
35126;SDS011;21300;52.006;5.798;2022-11-06T09:35:31;9.57;;;2.03;;
35126;SDS011;21300;52.006;5.798;2022-11-06T09:38:01;8.10;;;2.53;;
35126;SDS011;21300;52.006;5.798;2022-11-06T09:46:38;6.90;;;2.00;;
35126;SDS011;21300;52.006;5.798;2022-11-06T09:49:17;9.60;;;2.08;;
35126;SDS011;21300;52.006;5.798;2022-11-06T09:54:33;5.30;;;1.88;;
35126;SDS011;21300;52.006;5.798;2022-11-06T09:57:20;6.25;;;2.38;;
35126;SDS011;21300;52.006;5.798;2022-11-06T09:59:58;6.70;;;2.13;;
35126;SDS011;21300;52.006;5.798;2022-11-06T10:02:34;5.78;;;2.00;;
35126;SDS011;21300;52.006;5.798;2022-11-06T10:05:22;5.10;;;2.17;;
35126;SDS011;21300;52.006;5.798;2022-11-06T10:07:55;7.05;;;1.45;;
35126;SDS011;21300;52.006;5.798;2022-11-06T10:10:26;9.13;;;2.42;;
35126;SDS011;21300;52.006;5.798;2022-11-06T10:13:19;9.63;;;1.92;;
35126;SDS011;21300;52.006;5.798;2022-11-06T10:16:01;9.68;;;2.15;;
35126;SDS011;21300;52.006;5.798;2022-11-06T10:21:11;4.63;;;1.77;;
35126;SDS011;21300;52.006;5.798;2022-11-06T10:23:56;5.20;;;1.80;;
35126;SDS011;21300;52.006;5.798;2022-11-06T10:29:08;7.33;;;2.37;;
35126;SDS011;21300;52.006;5.798;2022-11-06T10:34:57;3.72;;;1.75;;
35126;SDS011;21300;52.006;5.798;2022-11-06T10:37:38;5.82;;;1.85;;
35126;SDS011;21300;52.006;5.798;2022-11-06T10:40:29;8.00;;;1.95;;
35126;SDS011;21300;52.006;5.798;2022-11-06T10:45:22;5.03;;;2.00;;
35126;SDS011;21300;52.006;5.798;2022-11-06T10:47:51;5.10;;;1.63;;
35126;SDS011;21300;52.006;5.798;2022-11-06T10:50:20;9.85;;;1.90;;
35126;SDS011;21300;52.006;5.798;2022-11-06T10:58:02;5.85;;;1.55;;
35126;SDS011;21300;52.006;5.798;2022-11-06T11:00:34;11.05;;;1.77;;
35126;SDS011;21300;52.006;5.798;2022-11-06T11:03:00;9.27;;;1.88;;
35126;SDS011;21300;52.006;5.798;2022-11-06T11:05:39;6.18;;;1.80;;
35126;SDS011;21300;52.006;5.798;2022-11-06T11:13:27;5.80;;;1.65;;
35126;SDS011;21300;52.006;5.798;2022-11-06T11:15:53;6.50;;;1.75;;
35126;SDS011;21300;52.006;5.798;2022-11-06T11:21:12;5.65;;;1.50;;
35126;SDS011;21300;52.006;5.798;2022-11-06T11:24:07;7.55;;;1.75;;
35126;SDS011;21300;52.006;5.798;2022-11-06T11:26:38;8.13;;;1.83;;
35126;SDS011;21300;52.006;5.798;2022-11-06T11:29:14;5.40;;;1.50;;
35126;SDS011;21300;52.006;5.798;2022-11-06T11:31:42;7.45;;;2.33;;
35126;SDS011;21300;52.006;5.798;2022-11-06T11:34:19;4.55;;;1.38;;
35126;SDS011;21300;52.006;5.798;2022-11-06T11:37:00;5.38;;;1.98;;
35126;SDS011;21300;52.006;5.798;2022-11-06T11:39:36;7.20;;;2.10;;
35126;SDS011;21300;52.006;5.798;2022-11-06T11:42:14;4.25;;;1.88;;
35126;SDS011;21300;52.006;5.798;2022-11-06T11:44:45;7.82;;;1.88;;
35126;SDS011;21300;52.006;5.798;2022-11-06T11:47:21;5.35;;;2.00;;
35126;SDS011;21300;52.006;5.798;2022-11-06T11:49:47;9.27;;;1.88;;
35126;SDS011;21300;52.006;5.798;2022-11-06T11:52:15;4.50;;;1.25;;
35126;SDS011;21300;52.006;5.798;2022-11-06T11:54:49;6.70;;;1.73;;
35126;SDS011;21300;52.006;5.798;2022-11-06T11:57:17;6.20;;;1.98;;
35126;SDS011;21300;52.006;5.798;2022-11-06T11:59:47;6.82;;;1.88;;
35126;SDS011;21300;52.006;5.798;2022-11-06T12:04:45;5.07;;;1.63;;
35126;SDS011;21300;52.006;5.798;2022-11-06T12:07:26;6.47;;;1.92;;
35126;SDS011;21300;52.006;5.798;2022-11-06T12:09:54;7.00;;;2.05;;
35126;SDS011;21300;52.006;5.798;2022-11-06T12:12:21;5.82;;;1.25;;
35126;SDS011;21300;52.006;5.798;2022-11-06T12:15:16;7.55;;;2.00;;
35126;SDS011;21300;52.006;5.798;2022-11-06T12:17:43;7.57;;;1.90;;
35126;SDS011;21300;52.006;5.798;2022-11-06T12:23:23;3.85;;;1.40;;
35126;SDS011;21300;52.006;5.798;2022-11-06T12:26:05;9.80;;;1.63;;
35126;SDS011;21300;52.006;5.798;2022-11-06T12:28:52;9.68;;;1.80;;
35126;SDS011;21300;52.006;5.798;2022-11-06T12:31:36;7.20;;;1.80;;
35126;SDS011;21300;52.006;5.798;2022-11-06T12:34:30;7.97;;;1.73;;
35126;SDS011;21300;52.006;5.798;2022-11-06T12:37:07;7.63;;;2.10;;
35126;SDS011;21300;52.006;5.798;2022-11-06T12:39:56;6.28;;;1.10;;
35126;SDS011;21300;52.006;5.798;2022-11-06T12:42:29;2.17;;;1.30;;
35126;SDS011;21300;52.006;5.798;2022-11-06T12:44:59;4.43;;;1.60;;
35126;SDS011;21300;52.006;5.798;2022-11-06T12:47:43;6.05;;;1.50;;
35126;SDS011;21300;52.006;5.798;2022-11-06T12:50:32;6.57;;;1.98;;
35126;SDS011;21300;52.006;5.798;2022-11-06T12:53:26;4.45;;;1.52;;
35126;SDS011;21300;52.006;5.798;2022-11-06T12:56:21;4.80;;;1.23;;
35126;SDS011;21300;52.006;5.798;2022-11-06T12:58:57;5.43;;;1.00;;
35126;SDS011;21300;52.006;5.798;2022-11-06T13:01:41;5.82;;;1.48;;
35126;SDS011;21300;52.006;5.798;2022-11-06T13:04:35;4.75;;;1.30;;
35126;SDS011;21300;52.006;5.798;2022-11-06T13:26:23;5.15;;;1.40;;
35126;SDS011;21300;52.006;5.798;2022-11-06T13:29:02;4.53;;;1.20;;
35126;SDS011;21300;52.006;5.798;2022-11-06T13:31:34;8.10;;;1.00;;
35126;SDS011;21300;52.006;5.798;2022-11-06T13:34:33;9.10;;;1.42;;
35126;SDS011;21300;52.006;5.798;2022-11-06T13:37:12;7.63;;;1.67;;
35126;SDS011;21300;52.006;5.798;2022-11-06T13:39:56;7.13;;;1.40;;
35126;SDS011;21300;52.006;5.798;2022-11-06T13:42:30;5.78;;;1.30;;
35126;SDS011;21300;52.006;5.798;2022-11-06T13:45:00;6.05;;;1.10;;
35126;SDS011;21300;52.006;5.798;2022-11-06T13:50:10;3.03;;;1.00;;
35126;SDS011;21300;52.006;5.798;2022-11-06T13:52:53;4.47;;;1.17;;
35126;SDS011;21300;52.006;5.798;2022-11-06T13:58:17;4.80;;;0.95;;
35126;SDS011;21300;52.006;5.798;2022-11-06T14:00:50;5.75;;;1.13;;
35126;SDS011;21300;52.006;5.798;2022-11-06T14:03:54;8.52;;;1.58;;
35126;SDS011;21300;52.006;5.798;2022-11-06T14:06:31;5.95;;;1.38;;
35126;SDS011;21300;52.006;5.798;2022-11-06T14:09:00;5.40;;;1.20;;
35126;SDS011;21300;52.006;5.798;2022-11-06T14:11:31;6.43;;;1.42;;
35126;SDS011;21300;52.006;5.798;2022-11-06T14:14:00;10.23;;;4.95;;
35126;SDS011;21300;52.006;5.798;2022-11-06T14:19:05;10.15;;;5.57;;
35126;SDS011;21300;52.006;5.798;2022-11-06T14:26:46;12.98;;;7.28;;
35126;SDS011;21300;52.006;5.798;2022-11-06T14:31:57;10.40;;;3.47;;
35126;SDS011;21300;52.006;5.798;2022-11-06T14:34:40;10.40;;;3.97;;
35126;SDS011;21300;52.006;5.798;2022-11-06T14:44:54;5.35;;;1.83;;
35126;SDS011;21300;52.006;5.798;2022-11-06T14:47:24;7.63;;;1.42;;
35126;SDS011;21300;52.006;5.798;2022-11-06T14:49:54;7.03;;;2.03;;
35126;SDS011;21300;52.006;5.798;2022-11-06T14:52:22;7.63;;;1.65;;
35126;SDS011;21300;52.006;5.798;2022-11-06T14:54:52;4.20;;;1.52;;
35126;SDS011;21300;52.006;5.798;2022-11-06T15:03:17;8.63;;;4.05;;
35126;SDS011;21300;52.006;5.798;2022-11-06T15:05:47;12.23;;;6.82;;
35126;SDS011;21300;52.006;5.798;2022-11-06T15:08:30;11.98;;;7.22;;
35126;SDS011;21300;52.006;5.798;2022-11-06T15:13:54;8.75;;;4.30;;
35126;SDS011;21300;52.006;5.798;2022-11-06T15:16:20;8.00;;;3.30;;
35126;SDS011;21300;52.006;5.798;2022-11-06T15:18:48;5.85;;;2.17;;
35126;SDS011;21300;52.006;5.798;2022-11-06T15:21:17;4.70;;;2.25;;
35126;SDS011;21300;52.006;5.798;2022-11-06T15:26:31;6.75;;;1.95;;
35126;SDS011;21300;52.006;5.798;2022-11-06T15:29:03;4.80;;;1.58;;
35126;SDS011;21300;52.006;5.798;2022-11-06T15:31:37;7.72;;;2.10;;
35126;SDS011;21300;52.006;5.798;2022-11-06T15:34:05;3.35;;;1.30;;
35126;SDS011;21300;52.006;5.798;2022-11-06T15:36:38;4.73;;;1.40;;
35126;SDS011;21300;52.006;5.798;2022-11-06T15:39:19;2.00;;;1.10;;
35126;SDS011;21300;52.006;5.798;2022-11-06T15:41:47;6.20;;;1.60;;
35126;SDS011;21300;52.006;5.798;2022-11-06T15:44:13;3.85;;;1.13;;
35126;SDS011;21300;52.006;5.798;2022-11-06T15:46:54;2.97;;;1.23;;
35126;SDS011;21300;52.006;5.798;2022-11-06T15:49:22;5.85;;;1.50;;
35126;SDS011;21300;52.006;5.798;2022-11-06T15:51:58;4.55;;;1.10;;
35126;SDS011;21300;52.006;5.798;2022-11-06T15:54:29;3.83;;;1.33;;
35126;SDS011;21300;52.006;5.798;2022-11-06T15:57:24;3.83;;;1.27;;
35126;SDS011;21300;52.006;5.798;2022-11-06T15:59:50;2.50;;;1.48;;
35126;SDS011;21300;52.006;5.798;2022-11-06T16:02:46;4.43;;;1.88;;
35126;SDS011;21300;52.006;5.798;2022-11-06T16:05:14;4.28;;;1.40;;
35126;SDS011;21300;52.006;5.798;2022-11-06T16:07:41;6.18;;;1.55;;
35126;SDS011;21300;52.006;5.798;2022-11-06T16:10:12;3.78;;;1.40;;
35126;SDS011;21300;52.006;5.798;2022-11-06T16:12:48;2.67;;;1.13;;
35126;SDS011;21300;52.006;5.798;2022-11-06T16:18:37;4.87;;;2.30;;
35126;SDS011;21300;52.006;5.798;2022-11-06T16:26:10;4.70;;;1.60;;
35126;SDS011;21300;52.006;5.798;2022-11-06T16:28:42;4.13;;;1.67;;
35126;SDS011;21300;52.006;5.798;2022-11-06T16:31:18;2.25;;;1.50;;
35126;SDS011;21300;52.006;5.798;2022-11-06T16:34:06;1.30;;;0.75;;
35126;SDS011;21300;52.006;5.798;2022-11-06T16:36:49;4.30;;;1.17;;
35126;SDS011;21300;52.006;5.798;2022-11-06T16:39:44;2.95;;;1.55;;
35126;SDS011;21300;52.006;5.798;2022-11-06T16:47:11;3.03;;;1.17;;
35126;SDS011;21300;52.006;5.798;2022-11-06T16:49:40;2.53;;;1.40;;
35126;SDS011;21300;52.006;5.798;2022-11-06T16:55:02;3.65;;;1.27;;
35126;SDS011;21300;52.006;5.798;2022-11-06T16:57:48;4.07;;;1.73;;
35126;SDS011;21300;52.006;5.798;2022-11-06T17:02:49;2.72;;;1.55;;
35126;SDS011;21300;52.006;5.798;2022-11-06T17:05:16;4.70;;;1.40;;
35126;SDS011;21300;52.006;5.798;2022-11-06T17:07:45;2.03;;;1.50;;
35126;SDS011;21300;52.006;5.798;2022-11-06T17:13:22;3.08;;;1.63;;
35126;SDS011;21300;52.006;5.798;2022-11-06T17:15:51;3.60;;;1.65;;
35126;SDS011;21300;52.006;5.798;2022-11-06T17:18:18;4.57;;;1.75;;
35126;SDS011;21300;52.006;5.798;2022-11-06T17:20:52;5.57;;;1.65;;
35126;SDS011;21300;52.006;5.798;2022-11-06T17:23:26;3.47;;;1.77;;
35126;SDS011;21300;52.006;5.798;2022-11-06T17:25:55;3.67;;;1.75;;
35126;SDS011;21300;52.006;5.798;2022-11-06T17:28:24;2.45;;;1.63;;
35126;SDS011;21300;52.006;5.798;2022-11-06T17:30:50;3.45;;;1.70;;
35126;SDS011;21300;52.006;5.798;2022-11-06T17:33:16;6.38;;;2.45;;
35126;SDS011;21300;52.006;5.798;2022-11-06T17:35:41;4.55;;;2.20;;
35126;SDS011;21300;52.006;5.798;2022-11-06T17:38:09;5.40;;;1.77;;
35126;SDS011;21300;52.006;5.798;2022-11-06T17:40:37;4.82;;;2.17;;
35126;SDS011;21300;52.006;5.798;2022-11-06T17:43:02;3.60;;;2.08;;
35126;SDS011;21300;52.006;5.798;2022-11-06T17:45:28;6.32;;;2.00;;